createdAt,value
2019-04-25T00:02:21.310Z,4.13
2019-04-25T00:04:48.075Z,2.50
2019-04-25T00:07:14.400Z,3.40
2019-04-25T00:09:51.312Z,2.87
2019-04-25T00:12:18.789Z,2.83
2019-04-25T00:14:45.826Z,4.80
2019-04-25T00:17:12.629Z,4.03
2019-04-25T00:19:38.949Z,2.80
2019-04-25T00:22:13.598Z,2.93
2019-04-25T00:24:43.261Z,4.20
2019-04-25T00:27:11.771Z,3.27
2019-04-25T00:29:38.199Z,4.00
2019-04-25T00:32:04.645Z,2.90
2019-04-25T00:34:31.909Z,2.90
2019-04-25T00:36:59.110Z,3.10
2019-04-25T00:39:25.467Z,3.27
2019-04-25T00:41:52.060Z,2.97
2019-04-25T00:44:18.535Z,2.37
2019-04-25T00:46:47.824Z,5.73
2019-04-25T00:49:14.795Z,3.00
2019-04-25T00:51:42.659Z,3.33
2019-04-25T00:54:09.181Z,3.10
2019-04-25T00:56:43.303Z,3.43
2019-04-25T00:59:13.855Z,3.30
2019-04-25T01:01:48.073Z,3.27
2019-04-25T01:04:15.303Z,3.30
2019-04-25T01:06:41.724Z,2.90
2019-04-25T01:09:12.366Z,2.80
2019-04-25T01:11:38.908Z,3.20
2019-04-25T01:14:05.216Z,3.67
2019-04-25T01:16:31.863Z,3.57
2019-04-25T01:18:58.393Z,3.50
2019-04-25T01:21:25.316Z,3.90
2019-04-25T01:23:53.279Z,2.90
2019-04-25T01:26:19.946Z,2.97
2019-04-25T01:28:47.640Z,3.27
2019-04-25T01:31:15.811Z,3.07
2019-04-25T01:33:43.347Z,2.90
2019-04-25T01:36:13.306Z,2.70
2019-04-25T01:38:47.470Z,5.27
2019-04-25T01:41:34.311Z,3.13
2019-04-25T01:44:08.390Z,4.97
2019-04-25T01:46:36.210Z,3.50
2019-04-25T01:49:04.236Z,3.67
2019-04-25T01:51:30.768Z,4.03
2019-04-25T01:53:57.095Z,5.57
2019-04-25T01:56:24.778Z,3.40
2019-04-25T01:58:51.272Z,3.40
2019-04-25T02:01:17.752Z,3.13
2019-04-25T02:03:44.334Z,3.70
2019-04-25T02:06:10.708Z,3.53
2019-04-25T02:08:37.234Z,4.53
2019-04-25T02:11:08.193Z,3.60
2019-04-25T02:13:35.811Z,4.30
2019-04-25T02:16:03.389Z,3.70
2019-04-25T02:18:29.826Z,3.63
2019-04-25T02:20:58.874Z,4.00
2019-04-25T02:23:24.330Z,4.10
2019-04-25T02:25:50.863Z,4.13
2019-04-25T02:28:17.216Z,4.70
2019-04-25T02:30:45.324Z,4.33
2019-04-25T02:33:14.001Z,4.10
2019-04-25T02:35:43.177Z,4.47
2019-04-25T02:38:09.050Z,4.73
2019-04-25T02:40:35.506Z,3.93
2019-04-25T02:43:03.230Z,4.27
2019-04-25T02:45:37.892Z,4.57
2019-04-25T02:48:24.116Z,4.53
2019-04-25T02:50:56.878Z,4.50
2019-04-25T02:53:37.319Z,5.00
2019-04-25T02:56:07.896Z,5.03
2019-04-25T02:58:31.580Z,5.60
2019-04-25T03:01:08.070Z,5.77
2019-04-25T03:03:26.441Z,5.47
2019-04-25T03:05:54.760Z,6.50
2019-04-25T03:08:21.199Z,7.80
2019-04-25T03:10:47.693Z,5.80
2019-04-25T03:13:14.802Z,5.67
2019-04-25T03:15:44.062Z,5.47
2019-04-25T03:18:12.474Z,5.97
2019-04-25T03:20:45.095Z,6.27
2019-04-25T03:23:15.755Z,6.40
2019-04-25T03:25:43.453Z,5.30
2019-04-25T03:28:09.919Z,5.60
2019-04-25T03:30:36.557Z,6.07
2019-04-25T03:33:09.293Z,5.30
2019-04-25T03:35:31.098Z,5.90
2019-04-25T03:37:57.715Z,6.37
2019-04-25T03:40:24.351Z,7.77
2019-04-25T03:42:50.871Z,7.33
2019-04-25T03:45:17.300Z,5.93
2019-04-25T03:47:43.635Z,6.23
2019-04-25T03:50:10.283Z,6.00
2019-04-25T03:52:36.808Z,5.73
2019-04-25T03:55:24.091Z,6.07
2019-04-25T03:57:50.396Z,6.80
2019-04-25T04:00:17.100Z,6.93
2019-04-25T04:02:44.277Z,7.83
2019-04-25T04:05:11.460Z,7.60
2019-04-25T04:07:37.932Z,7.87
2019-04-25T04:10:06.591Z,7.83
2019-04-25T04:12:33.958Z,8.27
2019-04-25T04:15:03.701Z,6.70
2019-04-25T04:17:48.138Z,7.40
2019-04-25T04:20:16.639Z,7.27
2019-04-25T04:22:48.073Z,7.93
2019-04-25T04:25:19.272Z,7.27
2019-04-25T04:27:45.968Z,6.87
2019-04-25T04:30:16.392Z,6.73
2019-04-25T04:32:44.056Z,6.70
2019-04-25T04:35:10.826Z,6.00
2019-04-25T04:37:37.316Z,6.77
2019-04-25T04:40:05.694Z,5.80
2019-04-25T04:42:33.631Z,6.77
2019-04-25T04:44:59.999Z,5.40
2019-04-25T04:47:26.261Z,5.47
2019-04-25T04:49:53.986Z,6.97
2019-04-25T04:52:20.470Z,6.57
2019-04-25T04:54:46.790Z,5.43
2019-04-25T04:57:23.499Z,5.20
2019-04-25T04:59:41.177Z,4.47
2019-04-25T05:02:10.640Z,4.93
2019-04-25T05:04:56.283Z,4.03
2019-04-25T05:07:25.359Z,5.03
2019-04-25T05:09:53.483Z,5.90
2019-04-25T05:12:19.934Z,3.67
2019-04-25T05:14:46.200Z,4.10
2019-04-25T05:17:14.306Z,4.53
2019-04-25T05:19:40.997Z,5.80
2019-04-25T05:22:07.408Z,5.70
2019-04-25T05:24:33.940Z,3.10
2019-04-25T05:27:00.384Z,3.77
2019-04-25T05:29:26.774Z,3.80
2019-04-25T05:31:54.227Z,5.47
2019-04-25T05:34:21.517Z,6.43
2019-04-25T05:36:48.157Z,3.43
2019-04-25T05:39:17.369Z,4.80
2019-04-25T05:41:47.250Z,3.20
2019-04-25T05:44:14.881Z,5.03
2019-04-25T05:46:43.756Z,3.73
2019-04-25T05:49:11.205Z,4.73
2019-04-25T05:51:39.467Z,3.53
2019-04-25T05:54:05.883Z,4.37
2019-04-25T05:56:33.798Z,5.70
2019-04-25T05:59:00.388Z,3.40
2019-04-25T06:01:29.234Z,4.20
2019-04-25T06:03:55.099Z,2.90
2019-04-25T06:06:21.362Z,3.07
2019-04-25T06:08:54.112Z,6.73
2019-04-25T06:11:26.187Z,5.37
2019-04-25T06:13:54.377Z,4.77
2019-04-25T06:16:25.657Z,3.00
2019-04-25T06:19:11.321Z,4.73
2019-04-25T06:21:27.531Z,3.13
2019-04-25T06:24:13.918Z,4.73
2019-04-25T06:26:43.344Z,6.73
2019-04-25T06:29:09.755Z,5.43
2019-04-25T06:31:37.392Z,4.20
2019-04-25T06:34:04.617Z,2.97
2019-04-25T06:36:31.273Z,3.63
2019-04-25T06:38:57.925Z,3.43
2019-04-25T06:41:25.842Z,4.03
2019-04-25T06:43:54.236Z,5.80
2019-04-25T06:46:22.993Z,3.87
2019-04-25T06:48:53.420Z,4.13
2019-04-25T06:51:22.420Z,4.90
2019-04-25T06:53:48.773Z,3.90
2019-04-25T06:56:15.103Z,4.93
2019-04-25T06:58:41.435Z,3.00
2019-04-25T07:01:07.764Z,5.97
2019-04-25T07:03:35.640Z,2.83
2019-04-25T07:06:03.264Z,4.93
2019-04-25T07:08:29.828Z,4.47
2019-04-25T07:10:56.165Z,2.57
2019-04-25T07:13:24.693Z,3.67
2019-04-25T07:15:50.869Z,4.63
2019-04-25T07:18:17.200Z,4.33
2019-04-25T07:20:45.238Z,3.93
2019-04-25T07:23:11.599Z,4.73
2019-04-25T07:25:40.270Z,5.07
2019-04-25T07:28:24.217Z,3.77
2019-04-25T07:30:52.172Z,2.90
2019-04-25T07:33:20.677Z,2.33
2019-04-25T07:35:46.945Z,3.97
2019-04-25T07:38:14.057Z,3.53
2019-04-25T07:40:40.591Z,3.13
2019-04-25T07:43:06.921Z,4.13
2019-04-25T07:45:36.208Z,4.70
2019-04-25T07:48:01.709Z,3.10
2019-04-25T07:50:28.567Z,6.50
2019-04-25T07:52:55.224Z,3.83
2019-04-25T07:55:23.348Z,3.07
2019-04-25T07:57:49.834Z,3.50
2019-04-25T08:00:16.665Z,3.07
2019-04-25T08:02:43.536Z,3.50
2019-04-25T08:05:12.235Z,3.20
2019-04-25T08:07:39.257Z,4.23
2019-04-25T08:10:07.149Z,4.57
2019-04-25T08:12:34.672Z,3.27
2019-04-25T08:15:04.486Z,4.33
2019-04-25T08:17:49.439Z,2.57
2019-04-25T08:20:16.487Z,6.13
2019-04-25T08:22:55.450Z,2.23
2019-04-25T08:25:13.792Z,5.37
2019-04-25T08:27:40.291Z,3.60
2019-04-25T08:30:07.008Z,6.43
2019-04-25T08:32:35.199Z,4.17
2019-04-25T08:35:01.413Z,4.73
2019-04-25T08:37:27.763Z,5.50
2019-04-25T08:39:54.195Z,3.63
2019-04-25T08:42:20.629Z,5.63
2019-04-25T08:44:46.910Z,6.83
2019-04-25T08:47:14.455Z,3.37
2019-04-25T08:49:49.585Z,3.77
2019-04-25T08:52:16.005Z,3.73
2019-04-25T08:54:47.190Z,3.93
2019-04-25T08:57:15.472Z,3.00
2019-04-25T08:59:52.248Z,4.70
2019-04-25T09:02:16.589Z,6.10
2019-04-25T09:05:01.738Z,4.43
2019-04-25T09:07:28.196Z,4.03
2019-04-25T09:09:54.705Z,5.00
2019-04-25T09:12:21.138Z,3.83
2019-04-25T09:14:47.571Z,3.07
2019-04-25T09:17:14.350Z,6.27
2019-04-25T09:19:40.792Z,3.83
2019-04-25T09:22:07.192Z,3.50
2019-04-25T09:24:36.265Z,1.57
2019-04-25T09:27:01.683Z,4.07
2019-04-25T09:29:28.012Z,2.83
2019-04-25T09:31:54.327Z,3.53
2019-04-25T09:34:20.735Z,5.37
2019-04-25T09:36:47.104Z,2.83
2019-04-25T09:39:15.239Z,4.50
2019-04-25T09:41:43.878Z,2.00
2019-04-25T09:44:11.961Z,4.73
2019-04-25T09:46:38.364Z,3.63
2019-04-25T09:49:12.239Z,2.93
2019-04-25T09:51:40.652Z,1.73
2019-04-25T09:54:25.451Z,3.23
2019-04-25T09:56:55.294Z,3.30
2019-04-25T09:59:28.113Z,5.13
2019-04-25T10:01:51.163Z,2.83
2019-04-25T10:04:17.380Z,5.13
2019-04-25T10:06:44.957Z,3.83
2019-04-25T10:09:13.574Z,4.97
2019-04-25T10:11:40.462Z,2.20
2019-04-25T10:14:26.288Z,1.57
2019-04-25T10:16:53.915Z,2.10
2019-04-25T10:19:20.563Z,3.80
2019-04-25T10:21:47.630Z,2.93
2019-04-25T10:24:13.942Z,2.80
2019-04-25T10:26:40.271Z,5.03
2019-04-25T10:29:06.525Z,4.20
2019-04-25T10:31:33.915Z,3.87
2019-04-25T10:34:00.498Z,4.83
2019-04-25T10:36:27.233Z,2.10
2019-04-25T10:39:05.128Z,3.10
2019-04-25T10:41:21.781Z,2.83
2019-04-25T10:43:48.348Z,3.63
2019-04-25T10:46:14.922Z,3.57
2019-04-25T10:48:41.958Z,1.77
2019-04-25T10:51:08.511Z,3.07
2019-04-25T10:53:34.923Z,3.43
2019-04-25T10:56:01.357Z,4.10
2019-04-25T10:58:27.794Z,5.97
2019-04-25T11:00:54.328Z,2.47
2019-04-25T11:03:39.807Z,3.70
2019-04-25T11:06:09.407Z,3.07
2019-04-25T11:08:35.691Z,3.20
2019-04-25T11:11:03.738Z,1.63
2019-04-25T11:13:30.479Z,3.47
2019-04-25T11:15:57.426Z,1.90
2019-04-25T11:18:24.163Z,4.13
2019-04-25T11:20:51.217Z,5.03
2019-04-25T11:23:17.614Z,3.77
2019-04-25T11:25:45.249Z,5.13
2019-04-25T11:28:14.348Z,2.67
2019-04-25T11:30:45.235Z,7.13
2019-04-25T11:33:11.340Z,3.90
2019-04-25T11:35:37.766Z,2.53
2019-04-25T11:38:09.113Z,3.33
2019-04-25T11:40:37.263Z,2.47
2019-04-25T11:43:04.294Z,3.93
2019-04-25T11:45:30.870Z,4.50
2019-04-25T11:47:57.302Z,2.23
2019-04-25T11:50:24.251Z,2.10
2019-04-25T11:52:50.579Z,3.10
2019-04-25T11:55:17.284Z,2.43
2019-04-25T11:57:47.341Z,2.20
2019-04-25T12:00:21.890Z,2.33
2019-04-25T12:02:41.257Z,2.73
2019-04-25T12:05:07.964Z,2.63
2019-04-25T12:07:34.385Z,3.17
2019-04-25T12:10:00.830Z,3.13
2019-04-25T12:12:27.227Z,2.03
2019-04-25T12:14:54.989Z,2.03
2019-04-25T12:17:23.348Z,3.47
2019-04-25T12:19:49.897Z,2.37
2019-04-25T12:22:16.372Z,3.07
2019-04-25T12:24:44.709Z,4.70
2019-04-25T12:27:10.774Z,5.33
2019-04-25T12:29:38.849Z,2.57
2019-04-25T12:32:06.849Z,2.50
2019-04-25T12:34:33.871Z,2.33
2019-04-25T12:37:00.584Z,2.27
2019-04-25T12:39:27.000Z,1.53
2019-04-25T12:41:54.451Z,1.73
2019-04-25T12:44:40.711Z,1.67
2019-04-25T12:47:13.525Z,3.07
2019-04-25T12:49:40.034Z,2.37
2019-04-25T12:52:06.438Z,2.27
2019-04-25T12:54:33.972Z,2.00
2019-04-25T12:57:00.435Z,3.57
2019-04-25T12:59:27.494Z,2.03
2019-04-25T13:01:54.928Z,2.23
2019-04-25T13:04:22.614Z,2.00
2019-04-25T13:06:49.035Z,2.20
2019-04-25T13:09:15.461Z,6.00
2019-04-25T13:11:43.346Z,2.53
2019-04-25T13:14:10.083Z,2.13
2019-04-25T13:16:36.727Z,1.20
2019-04-25T13:19:13.434Z,2.40
2019-04-25T13:21:33.332Z,3.10
2019-04-25T13:24:00.734Z,5.43
2019-04-25T13:26:28.991Z,2.17
2019-04-25T13:29:04.085Z,1.10
2019-04-25T13:31:49.912Z,1.77
2019-04-25T13:34:35.680Z,1.30
2019-04-25T13:36:51.993Z,4.10
2019-04-25T13:39:19.145Z,1.93
2019-04-25T13:41:45.473Z,5.23
2019-04-25T13:44:12.341Z,1.30
2019-04-25T13:46:38.773Z,2.43
2019-04-25T13:49:05.593Z,1.33
2019-04-25T13:51:31.979Z,3.73
2019-04-25T13:53:58.784Z,1.57
2019-04-25T13:56:27.151Z,1.70
2019-04-25T13:58:54.221Z,1.70
2019-04-25T14:01:21.127Z,1.13
2019-04-25T14:03:47.792Z,2.53
2019-04-25T14:06:14.312Z,1.57
2019-04-25T14:08:40.744Z,1.87
2019-04-25T14:11:07.277Z,1.93
2019-04-25T14:13:33.607Z,1.90
2019-04-25T14:16:10.890Z,2.50
2019-04-25T14:18:55.860Z,2.00
2019-04-25T14:21:24.634Z,1.30
2019-04-25T14:23:50.791Z,1.43
2019-04-25T14:26:17.510Z,1.90
2019-04-25T14:28:44.261Z,1.57
2019-04-25T14:31:14.494Z,1.20
2019-04-25T14:33:41.084Z,2.03
2019-04-25T14:36:07.397Z,3.17
2019-04-25T14:38:35.735Z,2.47
2019-04-25T14:41:01.949Z,2.93
2019-04-25T14:43:28.798Z,1.50
2019-04-25T14:45:56.273Z,1.80
2019-04-25T14:48:23.590Z,2.07
2019-04-25T14:50:50.065Z,2.00
2019-04-25T14:53:17.800Z,1.80
2019-04-25T14:56:02.867Z,3.73
2019-04-25T14:58:32.850Z,1.50
2019-04-25T15:00:59.366Z,1.33
2019-04-25T15:03:26.041Z,4.10
2019-04-25T15:05:52.809Z,4.07
2019-04-25T15:08:19.229Z,1.93
2019-04-25T15:10:48.258Z,1.87
2019-04-25T15:13:13.741Z,1.20
2019-04-25T15:15:40.269Z,2.30
2019-04-25T15:18:06.585Z,3.03
2019-04-25T15:20:32.934Z,3.20
2019-04-25T15:22:59.263Z,3.23
2019-04-25T15:25:26.219Z,3.57
2019-04-25T15:27:52.638Z,1.80
2019-04-25T15:30:24.960Z,1.70
2019-04-25T15:32:51.443Z,5.03
2019-04-25T15:35:19.943Z,1.70
2019-04-25T15:37:58.853Z,2.50
2019-04-25T15:40:33.119Z,2.10
2019-04-25T15:43:17.945Z,2.90
2019-04-25T15:45:46.206Z,3.63
2019-04-25T15:48:12.461Z,1.57
2019-04-25T15:50:39.283Z,1.60
2019-04-25T15:53:05.812Z,1.57
2019-04-25T15:55:32.255Z,2.50
2019-04-25T15:57:58.572Z,1.87
2019-04-25T16:00:27.073Z,2.70
2019-04-25T16:02:53.493Z,3.23
2019-04-25T16:05:19.865Z,1.70
2019-04-25T16:07:46.250Z,2.70
2019-04-25T16:10:12.989Z,1.63
2019-04-25T16:12:39.406Z,3.17
2019-04-25T16:15:06.061Z,2.43
2019-04-25T16:17:32.723Z,1.60
2019-04-25T16:19:59.075Z,3.30
2019-04-25T16:22:25.465Z,3.43
2019-04-25T16:24:51.791Z,1.80
2019-04-25T16:27:18.328Z,2.07
2019-04-25T16:29:45.082Z,3.17
2019-04-25T16:32:20.544Z,3.17
2019-04-25T16:34:42.085Z,1.83
2019-04-25T16:37:08.773Z,2.30
2019-04-25T16:39:35.589Z,2.00
2019-04-25T16:42:01.888Z,3.43
2019-04-25T16:44:28.747Z,2.27
2019-04-25T16:46:55.525Z,1.50
2019-04-25T16:49:21.958Z,2.33
2019-04-25T16:51:50.131Z,1.90
2019-04-25T16:54:16.414Z,2.20
2019-04-25T16:56:42.898Z,2.23
2019-04-25T16:59:09.316Z,2.60
2019-04-25T17:01:36.026Z,5.60
2019-04-25T17:04:03.054Z,2.17
2019-04-25T17:06:30.128Z,2.37
2019-04-25T17:08:56.593Z,2.37
2019-04-25T17:11:24.501Z,2.83
2019-04-25T17:13:52.681Z,3.03
2019-04-25T17:16:37.613Z,3.10
2019-04-25T17:19:11.611Z,2.37
2019-04-25T17:21:37.877Z,2.20
2019-04-25T17:24:04.748Z,3.83
2019-04-25T17:26:31.466Z,3.30
2019-04-25T17:28:59.922Z,2.70
2019-04-25T17:31:34.222Z,3.50
2019-04-25T17:34:17.731Z,2.60
2019-04-25T17:36:51.654Z,2.63
2019-04-25T17:39:23.214Z,4.20
2019-04-25T17:41:49.497Z,2.80
2019-04-25T17:44:15.887Z,3.47
2019-04-25T17:46:42.308Z,2.93
2019-04-25T17:49:08.613Z,3.27
2019-04-25T17:51:34.912Z,3.47
2019-04-25T17:54:01.313Z,2.37
2019-04-25T17:56:27.963Z,4.43
2019-04-25T17:58:54.217Z,4.37
2019-04-25T18:01:22.430Z,3.40
2019-04-25T18:03:48.742Z,3.37
2019-04-25T18:06:15.109Z,2.47
2019-04-25T18:08:41.688Z,1.90
2019-04-25T18:11:08.720Z,3.03
2019-04-25T18:13:37.625Z,2.00
2019-04-25T18:16:05.340Z,2.80
2019-04-25T18:18:45.803Z,2.03
2019-04-25T18:21:12.255Z,2.33
2019-04-25T18:23:49.315Z,2.57
2019-04-25T18:26:20.187Z,2.20
2019-04-25T18:28:48.381Z,1.80
2019-04-25T18:31:14.761Z,2.07
2019-04-25T18:33:41.774Z,1.90
2019-04-25T18:36:21.972Z,2.93
2019-04-25T18:38:53.091Z,2.10
2019-04-25T18:41:21.295Z,1.87
2019-04-25T18:43:50.065Z,1.90
2019-04-25T18:46:18.648Z,2.87
2019-04-25T18:48:45.287Z,2.43
2019-04-25T18:51:11.629Z,2.23
2019-04-25T18:53:51.770Z,1.90
2019-04-25T18:56:23.142Z,3.17
2019-04-25T18:59:07.880Z,2.80
2019-04-25T19:01:41.921Z,1.60
2019-04-25T19:04:25.322Z,2.00
2019-04-25T19:06:57.931Z,1.67
2019-04-25T19:09:19.737Z,1.70
2019-04-25T19:11:47.144Z,1.97
2019-04-25T19:14:13.837Z,2.03
2019-04-25T19:16:41.090Z,1.90
2019-04-25T19:19:07.708Z,1.90
2019-04-25T19:21:34.042Z,1.63
2019-04-25T19:24:00.375Z,1.80
2019-04-25T19:26:26.809Z,1.93
2019-04-25T19:28:53.075Z,2.10
2019-04-25T19:31:19.565Z,2.77
2019-04-25T19:33:45.863Z,2.17
2019-04-25T19:36:12.327Z,1.80
2019-04-25T19:38:39.548Z,2.00
2019-04-25T19:41:08.177Z,1.70
2019-04-25T19:43:42.231Z,2.10
2019-04-25T19:46:08.582Z,2.10
2019-04-25T19:48:35.353Z,2.27
2019-04-25T19:51:01.677Z,2.30
2019-04-25T19:53:28.019Z,1.87
2019-04-25T19:55:54.446Z,2.07
2019-04-25T19:58:20.797Z,2.33
2019-04-25T20:00:48.815Z,3.90
2019-04-25T20:03:17.009Z,1.80
2019-04-25T20:05:46.196Z,2.50
2019-04-25T20:08:33.031Z,3.37
2019-04-25T20:11:04.225Z,2.87
2019-04-25T20:13:30.673Z,3.57
2019-04-25T20:15:57.049Z,2.60
2019-04-25T20:18:23.465Z,2.67
2019-04-25T20:20:50.079Z,2.30
2019-04-25T20:23:16.663Z,3.80
2019-04-25T20:25:43.771Z,2.33
2019-04-25T20:28:11.095Z,2.50
2019-04-25T20:30:37.475Z,3.57
2019-04-25T20:33:03.903Z,3.30
2019-04-25T20:35:30.182Z,2.50
2019-04-25T20:37:56.667Z,2.50
2019-04-25T20:40:22.885Z,2.67
2019-04-25T20:42:49.860Z,3.27
2019-04-25T20:45:16.501Z,2.60
2019-04-25T20:47:42.886Z,3.40
2019-04-25T20:50:09.700Z,2.57
2019-04-25T20:52:38.034Z,2.67
2019-04-25T20:55:05.921Z,3.70
2019-04-25T20:57:32.202Z,2.93
2019-04-25T20:59:58.503Z,3.00
2019-04-25T21:02:24.886Z,5.77
2019-04-25T21:04:52.261Z,2.93
2019-04-25T21:07:18.683Z,2.90
2019-04-25T21:09:45.005Z,2.90
2019-04-25T21:12:11.333Z,2.90
2019-04-25T21:14:49.344Z,2.83
2019-04-25T21:17:17.518Z,3.23
2019-04-25T21:19:48.992Z,4.27
2019-04-25T21:22:16.515Z,3.10
2019-04-25T21:24:42.923Z,3.33
2019-04-25T21:27:09.416Z,3.10
2019-04-25T21:29:35.819Z,3.40
2019-04-25T21:32:02.355Z,2.97
2019-04-25T21:34:30.525Z,3.77
2019-04-25T21:36:57.560Z,3.37
2019-04-25T21:39:26.261Z,3.80
2019-04-25T21:41:57.695Z,3.43
2019-04-25T21:44:24.452Z,3.10
2019-04-25T21:46:52.157Z,3.87
2019-04-25T21:49:19.468Z,3.43
2019-04-25T21:51:45.799Z,3.30
2019-04-25T21:54:12.177Z,3.60
2019-04-25T21:56:38.824Z,3.10
2019-04-25T21:59:05.612Z,3.47
2019-04-25T22:01:44.186Z,3.80
2019-04-25T22:04:10.864Z,3.77
2019-04-25T22:06:37.599Z,3.63
2019-04-25T22:09:10.286Z,3.23
2019-04-25T22:11:36.599Z,3.60
2019-04-25T22:14:03.763Z,3.53
2019-04-25T22:16:32.074Z,3.43
2019-04-25T22:18:58.477Z,3.50
2019-04-25T22:21:37.209Z,5.53
2019-04-25T22:24:03.497Z,5.37
2019-04-25T22:26:26.310Z,3.50
2019-04-25T22:28:52.912Z,3.53
2019-04-25T22:31:21.082Z,4.23
2019-04-25T22:33:55.497Z,4.97
2019-04-25T22:36:23.162Z,3.87
2019-04-25T22:38:57.698Z,4.33
2019-04-25T22:41:24.342Z,3.63
2019-04-25T22:43:53.009Z,4.33
2019-04-25T22:46:25.812Z,4.23
2019-04-25T22:48:47.923Z,4.07
2019-04-25T22:51:14.966Z,3.90
2019-04-25T22:53:41.505Z,3.80
2019-04-25T22:56:07.791Z,4.00
2019-04-25T22:58:34.198Z,3.73
2019-04-25T23:01:02.171Z,4.23
2019-04-25T23:03:31.448Z,3.80
2019-04-25T23:05:57.770Z,4.43
2019-04-25T23:08:24.352Z,3.67
2019-04-25T23:10:50.738Z,4.17
2019-04-25T23:13:17.062Z,4.47
2019-04-25T23:15:43.461Z,4.10
2019-04-25T23:18:10.133Z,4.10
2019-04-25T23:20:36.983Z,4.30
2019-04-25T23:23:04.338Z,4.30
2019-04-25T23:25:33.253Z,6.13
2019-04-25T23:28:05.329Z,6.10
2019-04-25T23:30:37.099Z,4.97
2019-04-25T23:33:04.269Z,4.00
2019-04-25T23:35:32.644Z,4.47
2019-04-25T23:37:59.823Z,4.20
2019-04-25T23:40:26.153Z,5.93
2019-04-25T23:42:53.119Z,4.80
2019-04-25T23:45:19.533Z,4.90
2019-04-25T23:47:45.966Z,4.47
2019-04-25T23:50:12.841Z,5.00
2019-04-25T23:52:40.129Z,4.77
2019-04-25T23:55:06.783Z,4.87
2019-04-25T23:57:34.461Z,4.97
